createdAt,value
2018-08-31T00:01:14.704Z,2.57
2018-08-31T00:04:53.088Z,2.50
2018-08-31T00:07:34.219Z,2.30
2018-08-31T00:12:17.409Z,2.60
2018-08-31T00:14:45.802Z,2.57
2018-08-31T00:17:14.479Z,2.27
2018-08-31T00:19:42.896Z,2.97
2018-08-31T00:22:11.284Z,2.97
2018-08-31T00:24:53.660Z,2.43
2018-08-31T00:27:33.564Z,2.07
2018-08-31T00:30:13.421Z,2.40
2018-08-31T00:33:12.820Z,3.00
2018-08-31T00:38:00.245Z,2.80
2018-08-31T00:40:39.758Z,2.20
2018-08-31T00:44:19.196Z,2.73
2018-08-31T00:46:47.585Z,3.20
2018-08-31T00:49:15.992Z,3.03
2018-08-31T00:51:44.422Z,2.60
2018-08-31T00:56:43.989Z,2.33
2018-08-31T00:59:12.388Z,2.20
2018-08-31T01:01:40.803Z,3.30
2018-08-31T01:04:09.218Z,2.43
2018-08-31T01:06:37.664Z,2.97
2018-08-31T01:09:07.085Z,2.57
2018-08-31T01:11:35.489Z,2.37
2018-08-31T01:14:03.927Z,2.67
2018-08-31T01:16:32.338Z,2.50
2018-08-31T01:19:00.717Z,2.90
2018-08-31T01:21:29.096Z,2.73
2018-08-31T01:23:57.514Z,2.53
2018-08-31T01:26:25.908Z,2.33
2018-08-31T01:28:54.321Z,3.03
2018-08-31T01:31:22.721Z,2.97
2018-08-31T01:33:51.116Z,3.17
2018-08-31T01:36:19.509Z,3.20
2018-08-31T01:38:47.949Z,2.93
2018-08-31T01:41:16.339Z,2.70
2018-08-31T01:43:44.752Z,3.50
2018-08-31T01:46:13.143Z,2.80
2018-08-31T01:48:41.556Z,2.83
2018-08-31T01:51:15.385Z,3.30
2018-08-31T01:53:43.772Z,3.00
2018-08-31T01:56:12.189Z,2.83
2018-08-31T01:58:40.605Z,3.03
2018-08-31T02:01:09.099Z,3.37
2018-08-31T02:03:37.503Z,3.30
2018-08-31T02:06:06.657Z,3.00
2018-08-31T02:08:35.933Z,2.87
2018-08-31T02:11:04.390Z,3.47
2018-08-31T02:13:32.789Z,2.87
2018-08-31T02:16:01.177Z,2.90
2018-08-31T02:18:29.581Z,2.53
2018-08-31T02:20:57.973Z,3.73
2018-08-31T02:23:26.379Z,2.90
2018-08-31T02:25:54.796Z,2.67
2018-08-31T02:28:23.202Z,3.37
2018-08-31T02:30:51.597Z,3.30
2018-08-31T02:33:20.002Z,2.57
2018-08-31T02:35:48.411Z,2.60
2018-08-31T02:38:16.799Z,3.83
2018-08-31T02:40:45.320Z,3.37
2018-08-31T02:43:13.713Z,3.23
2018-08-31T02:45:42.091Z,2.80
2018-08-31T02:48:10.508Z,3.17
2018-08-31T02:50:38.903Z,3.40
2018-08-31T02:53:07.508Z,3.40
2018-08-31T02:55:35.885Z,2.83
2018-08-31T02:58:04.296Z,3.13
2018-08-31T03:00:32.684Z,2.77
2018-08-31T03:03:01.213Z,4.00
2018-08-31T03:05:29.589Z,3.13
2018-08-31T03:07:58.195Z,3.63
2018-08-31T03:10:26.604Z,3.60
2018-08-31T03:12:55.281Z,3.43
2018-08-31T03:15:23.668Z,2.77
2018-08-31T03:17:52.073Z,3.50
2018-08-31T03:20:20.513Z,3.00
2018-08-31T03:22:49.468Z,3.20
2018-08-31T03:25:17.856Z,3.60
2018-08-31T03:27:46.273Z,3.40
2018-08-31T03:30:14.672Z,3.40
2018-08-31T03:32:43.080Z,4.20
2018-08-31T03:35:11.484Z,3.93
2018-08-31T03:37:39.884Z,3.60
2018-08-31T03:40:08.317Z,3.90
2018-08-31T03:42:36.814Z,3.70
2018-08-31T03:45:05.304Z,3.13
2018-08-31T03:47:33.701Z,3.07
2018-08-31T03:50:02.152Z,3.63
2018-08-31T03:52:30.782Z,4.17
2018-08-31T03:54:59.240Z,3.70
2018-08-31T03:57:27.985Z,3.40
2018-08-31T03:59:56.490Z,3.90
2018-08-31T04:02:24.886Z,3.50
2018-08-31T04:04:53.299Z,3.60
2018-08-31T04:07:21.825Z,3.47
2018-08-31T04:09:50.216Z,3.70
2018-08-31T04:12:18.613Z,2.77
2018-08-31T04:14:47.046Z,2.80
2018-08-31T04:17:15.388Z,3.43
2018-08-31T04:19:43.779Z,3.10
2018-08-31T04:22:12.191Z,3.60
2018-08-31T04:24:40.577Z,3.33
2018-08-31T04:27:08.973Z,3.40
2018-08-31T04:29:37.392Z,3.37
2018-08-31T04:32:05.836Z,4.00
2018-08-31T04:34:34.301Z,3.73
2018-08-31T04:37:02.736Z,3.90
2018-08-31T04:39:31.121Z,4.27
2018-08-31T04:41:59.520Z,4.20
2018-08-31T04:44:27.968Z,3.77
2018-08-31T04:46:56.408Z,4.20
2018-08-31T04:49:24.822Z,3.60
2018-08-31T04:51:53.233Z,3.90
2018-08-31T04:54:21.599Z,4.00
2018-08-31T04:56:50.007Z,3.80
2018-08-31T04:59:18.407Z,3.50
2018-08-31T05:01:46.790Z,3.60
2018-08-31T05:04:16.256Z,3.93
2018-08-31T05:06:44.637Z,3.67
2018-08-31T05:09:13.228Z,3.87
2018-08-31T05:11:41.736Z,3.20
2018-08-31T05:14:10.144Z,4.50
2018-08-31T05:16:38.549Z,4.07
2018-08-31T05:19:06.929Z,3.77
2018-08-31T05:21:35.309Z,4.67
2018-08-31T05:24:03.788Z,4.80
2018-08-31T05:26:32.177Z,4.30
2018-08-31T05:29:00.620Z,4.47
2018-08-31T05:31:29.064Z,3.80
2018-08-31T05:33:57.555Z,4.10
2018-08-31T05:36:25.916Z,4.23
2018-08-31T05:38:54.463Z,3.70
2018-08-31T05:41:22.880Z,3.83
2018-08-31T05:43:51.310Z,4.80
2018-08-31T05:46:19.711Z,3.80
2018-08-31T05:48:48.137Z,3.87
2018-08-31T05:51:16.562Z,4.50
2018-08-31T05:53:45.033Z,3.77
2018-08-31T05:56:13.748Z,4.30
2018-08-31T05:58:42.177Z,4.60
2018-08-31T06:01:10.568Z,4.23
2018-08-31T06:03:38.980Z,4.13
2018-08-31T06:06:07.416Z,4.50
2018-08-31T06:08:35.921Z,4.60
2018-08-31T06:11:04.368Z,4.47
2018-08-31T06:13:32.840Z,3.90
2018-08-31T06:16:01.254Z,4.27
2018-08-31T06:18:29.685Z,4.50
2018-08-31T06:20:58.098Z,4.70
2018-08-31T06:23:26.484Z,4.00
2018-08-31T06:25:54.875Z,4.33
2018-08-31T06:28:23.267Z,4.13
2018-08-31T06:30:51.657Z,4.47
2018-08-31T06:33:20.069Z,4.80
2018-08-31T06:35:48.708Z,4.90
2018-08-31T06:38:17.141Z,5.27
2018-08-31T06:40:45.600Z,4.30
2018-08-31T06:43:13.952Z,4.17
2018-08-31T06:45:42.357Z,4.10
2018-08-31T06:48:10.762Z,4.03
2018-08-31T06:50:39.205Z,4.37
2018-08-31T06:53:07.868Z,4.07
2018-08-31T06:55:36.284Z,4.57
2018-08-31T06:58:04.764Z,4.20
2018-08-31T07:00:33.137Z,4.63
2018-08-31T07:03:01.627Z,3.80
2018-08-31T07:05:30.029Z,4.57
2018-08-31T07:07:58.611Z,4.70
2018-08-31T07:10:26.996Z,4.33
2018-08-31T07:12:55.428Z,4.47
2018-08-31T07:15:23.998Z,4.30
2018-08-31T07:17:52.378Z,4.63
2018-08-31T07:20:20.764Z,5.07
2018-08-31T07:22:49.144Z,5.33
2018-08-31T07:25:17.575Z,4.77
2018-08-31T07:27:45.982Z,4.93
2018-08-31T07:30:14.668Z,5.07
2018-08-31T07:32:43.066Z,5.60
2018-08-31T07:35:11.468Z,5.30
2018-08-31T07:37:39.889Z,4.83
2018-08-31T07:40:08.312Z,5.20
2018-08-31T07:42:37.850Z,5.80
2018-08-31T07:45:07.259Z,5.43
2018-08-31T07:47:36.549Z,6.30
2018-08-31T07:50:05.889Z,4.63
2018-08-31T07:52:34.310Z,5.00
2018-08-31T07:55:02.780Z,5.57
2018-08-31T07:57:31.174Z,5.40
2018-08-31T07:59:59.564Z,5.50
2018-08-31T08:02:28.829Z,6.00
2018-08-31T08:04:57.222Z,6.03
2018-08-31T08:07:25.763Z,5.40
2018-08-31T08:09:54.181Z,5.63
2018-08-31T08:12:22.648Z,5.27
2018-08-31T08:14:51.103Z,5.27
2018-08-31T08:17:19.434Z,4.87
2018-08-31T08:19:47.889Z,5.70
2018-08-31T08:22:16.302Z,5.63
2018-08-31T08:24:44.693Z,5.90
2018-08-31T08:27:13.206Z,5.33
2018-08-31T08:29:41.621Z,6.63
2018-08-31T08:32:09.992Z,5.60
2018-08-31T08:34:38.424Z,3.97
2018-08-31T08:37:06.859Z,5.50
2018-08-31T08:39:35.301Z,5.40
2018-08-31T08:42:03.780Z,5.37
2018-08-31T08:44:32.231Z,5.10
2018-08-31T08:47:00.659Z,4.73
2018-08-31T08:49:29.089Z,5.90
2018-08-31T08:51:57.524Z,5.20
2018-08-31T08:54:25.921Z,5.07
2018-08-31T08:56:54.444Z,4.83
2018-08-31T08:59:22.909Z,4.20
2018-08-31T09:01:51.348Z,3.97
2018-08-31T09:04:19.816Z,4.00
2018-08-31T09:06:48.230Z,3.33
2018-08-31T09:09:16.659Z,3.37
2018-08-31T09:11:45.054Z,3.00
2018-08-31T09:14:13.556Z,2.90
2018-08-31T09:16:41.981Z,2.43
2018-08-31T09:19:10.396Z,2.53
2018-08-31T09:21:38.806Z,2.10
2018-08-31T09:24:07.297Z,2.80
2018-08-31T09:26:35.708Z,1.90
2018-08-31T09:29:04.180Z,2.33
2018-08-31T09:31:32.696Z,2.40
2018-08-31T09:34:01.086Z,2.50
2018-08-31T09:36:29.563Z,1.80
2018-08-31T09:38:57.916Z,2.23
2018-08-31T09:41:26.317Z,1.57
2018-08-31T09:43:54.938Z,2.07
2018-08-31T09:46:23.276Z,2.10
2018-08-31T09:48:51.689Z,2.10
2018-08-31T09:51:20.096Z,1.60
2018-08-31T09:53:48.525Z,2.40
2018-08-31T09:56:16.997Z,2.30
2018-08-31T09:58:45.436Z,2.03
2018-08-31T10:01:19.084Z,2.73
2018-08-31T10:03:47.513Z,1.87
2018-08-31T10:06:15.913Z,1.90
2018-08-31T10:08:44.369Z,1.90
2018-08-31T10:11:12.800Z,1.60
2018-08-31T10:13:41.211Z,1.97
2018-08-31T10:16:09.662Z,1.97
2018-08-31T10:18:38.125Z,2.00
2018-08-31T10:21:07.481Z,1.90
2018-08-31T10:23:35.877Z,1.77
2018-08-31T10:26:04.321Z,2.20
2018-08-31T10:28:32.740Z,1.60
2018-08-31T10:31:01.165Z,1.50
2018-08-31T10:33:29.568Z,1.70
2018-08-31T10:35:57.980Z,1.33
2018-08-31T10:38:26.376Z,1.60
2018-08-31T10:40:54.933Z,1.60
2018-08-31T10:43:23.316Z,1.83
2018-08-31T10:45:51.720Z,1.50
2018-08-31T10:48:20.100Z,1.33
2018-08-31T10:50:48.500Z,1.53
2018-08-31T10:53:17.014Z,1.37
2018-08-31T10:55:45.436Z,1.30
2018-08-31T10:58:13.841Z,1.20
2018-08-31T11:00:42.281Z,1.50
2018-08-31T11:03:10.804Z,1.57
2018-08-31T11:05:39.202Z,1.53
2018-08-31T11:08:07.624Z,1.67
2018-08-31T11:10:36.029Z,1.20
2018-08-31T11:13:04.502Z,1.67
2018-08-31T11:15:32.919Z,1.40
2018-08-31T11:18:01.348Z,1.70
2018-08-31T11:20:29.763Z,1.60
2018-08-31T11:22:58.180Z,2.20
2018-08-31T11:25:26.604Z,1.83
2018-08-31T11:27:55.108Z,2.00
2018-08-31T11:30:23.545Z,1.70
2018-08-31T11:32:51.960Z,1.77
2018-08-31T11:35:20.406Z,1.60
2018-08-31T11:37:48.821Z,1.67
2018-08-31T11:40:17.325Z,1.60
2018-08-31T11:42:45.716Z,1.53
2018-08-31T11:45:14.129Z,1.90
2018-08-31T11:47:42.557Z,1.80
2018-08-31T11:50:10.973Z,1.63
2018-08-31T11:52:39.354Z,2.10
2018-08-31T11:55:07.825Z,1.83
2018-08-31T11:57:36.235Z,2.00
2018-08-31T12:00:04.997Z,1.57
2018-08-31T12:02:33.396Z,1.10
2018-08-31T12:05:01.810Z,1.50
2018-08-31T12:07:30.253Z,1.43
2018-08-31T12:09:58.714Z,1.70
2018-08-31T12:12:27.193Z,2.00
2018-08-31T12:14:55.593Z,1.70
2018-08-31T12:17:24.001Z,1.90
2018-08-31T12:19:52.388Z,1.50
2018-08-31T12:22:20.818Z,1.77
2018-08-31T12:24:49.233Z,2.20
2018-08-31T12:27:17.652Z,1.60
2018-08-31T12:29:46.214Z,1.90
2018-08-31T12:32:14.600Z,1.63
2018-08-31T12:34:43.188Z,1.60
2018-08-31T12:37:11.597Z,1.33
2018-08-31T12:39:40.040Z,1.73
2018-08-31T12:42:08.617Z,1.40
2018-08-31T12:44:37.130Z,1.70
2018-08-31T12:47:05.634Z,1.63
2018-08-31T12:49:34.048Z,1.50
2018-08-31T12:52:02.492Z,1.60
2018-08-31T12:54:30.992Z,1.50
2018-08-31T12:56:59.412Z,1.70
2018-08-31T12:59:27.820Z,1.50
2018-08-31T13:01:56.677Z,1.50
2018-08-31T13:04:25.138Z,1.70
2018-08-31T13:06:53.604Z,1.43
2018-08-31T13:09:22.068Z,1.40
2018-08-31T13:11:50.448Z,1.50
2018-08-31T13:14:18.914Z,1.70
2018-08-31T13:16:47.332Z,1.70
2018-08-31T13:19:15.707Z,1.47
2018-08-31T13:21:44.162Z,1.47
2018-08-31T13:24:12.764Z,1.27
2018-08-31T13:26:41.168Z,1.40
2018-08-31T13:29:09.627Z,2.00
2018-08-31T13:31:38.048Z,1.23
2018-08-31T13:34:06.544Z,1.50
2018-08-31T13:36:34.977Z,1.40
2018-08-31T13:39:03.924Z,1.90
2018-08-31T13:41:32.373Z,1.70
2018-08-31T13:44:00.932Z,1.27
2018-08-31T13:46:29.317Z,1.57
2018-08-31T13:48:57.740Z,2.03
2018-08-31T13:51:26.142Z,1.47
2018-08-31T13:53:54.540Z,1.73
2018-08-31T13:56:23.077Z,1.80
2018-08-31T13:58:51.577Z,1.67
2018-08-31T14:01:20.032Z,1.67
2018-08-31T14:03:48.441Z,1.27
2018-08-31T14:06:16.840Z,1.53
2018-08-31T14:08:45.364Z,1.30
2018-08-31T14:11:13.772Z,1.40
2018-08-31T14:13:42.196Z,1.70
2018-08-31T14:16:10.767Z,1.53
2018-08-31T14:18:39.237Z,1.53
2018-08-31T14:21:07.706Z,1.33
2018-08-31T14:23:36.099Z,1.50
2018-08-31T14:26:04.566Z,1.50
2018-08-31T14:28:33.034Z,1.47
2018-08-31T14:31:01.631Z,1.63
2018-08-31T14:33:30.280Z,1.30
2018-08-31T14:35:58.669Z,2.07
2018-08-31T14:38:27.049Z,1.80
2018-08-31T14:40:55.665Z,1.50
2018-08-31T14:43:24.344Z,1.43
2018-08-31T14:45:52.817Z,1.30
2018-08-31T14:48:21.225Z,1.70
2018-08-31T14:50:49.688Z,1.60
2018-08-31T14:53:18.316Z,1.40
2018-08-31T14:55:46.768Z,1.80
2018-08-31T14:58:15.559Z,1.60
2018-08-31T15:00:44.220Z,1.50
2018-08-31T15:03:12.665Z,1.90
2018-08-31T15:05:41.107Z,1.60
2018-08-31T15:08:10.264Z,2.00
2018-08-31T15:10:38.696Z,1.23
2018-08-31T15:13:07.158Z,1.70
2018-08-31T15:15:35.647Z,1.10
2018-08-31T15:18:04.114Z,2.00
2018-08-31T15:20:32.516Z,1.70
2018-08-31T15:23:00.961Z,11.20
2018-08-31T15:25:29.433Z,2.43
2018-08-31T15:27:57.781Z,1.97
2018-08-31T15:30:26.272Z,1.43
2018-08-31T15:32:54.689Z,1.70
2018-08-31T15:35:23.723Z,1.77
2018-08-31T15:37:52.230Z,1.30
2018-08-31T15:40:20.824Z,1.43
2018-08-31T15:42:49.438Z,1.60
2018-08-31T15:45:17.825Z,1.60
2018-08-31T15:47:46.267Z,1.50
2018-08-31T15:50:14.657Z,1.57
2018-08-31T15:52:43.073Z,2.20
2018-08-31T15:55:11.503Z,1.60
2018-08-31T15:57:39.901Z,1.80
2018-08-31T16:00:09.604Z,1.93
2018-08-31T16:02:38.189Z,1.63
2018-08-31T16:05:07.369Z,1.60
2018-08-31T16:07:35.965Z,1.43
2018-08-31T16:10:04.460Z,1.63
2018-08-31T16:12:32.845Z,1.80
2018-08-31T16:15:01.279Z,1.80
2018-08-31T16:17:29.700Z,1.40
2018-08-31T16:19:58.095Z,1.53
2018-08-31T16:22:26.524Z,1.60
2018-08-31T16:24:54.972Z,1.70
2018-08-31T16:27:23.401Z,1.63
2018-08-31T16:29:51.813Z,1.57
2018-08-31T16:32:20.306Z,1.40
2018-08-31T16:34:48.710Z,1.47
2018-08-31T16:37:17.220Z,1.53
2018-08-31T16:39:45.625Z,1.53
2018-08-31T16:42:14.061Z,1.53
2018-08-31T16:44:42.533Z,1.50
2018-08-31T16:47:10.995Z,1.30
2018-08-31T16:49:39.436Z,1.57
2018-08-31T16:52:07.865Z,1.53
2018-08-31T16:54:36.312Z,1.73
2018-08-31T16:57:04.816Z,1.60
2018-08-31T16:59:33.315Z,1.50
2018-08-31T17:02:01.751Z,1.30
2018-08-31T17:04:30.162Z,1.77
2018-08-31T17:06:58.575Z,1.60
2018-08-31T17:09:26.997Z,1.70
2018-08-31T17:11:55.415Z,1.37
2018-08-31T17:14:23.814Z,1.80
2018-08-31T17:16:52.305Z,1.93
2018-08-31T17:19:20.722Z,1.20
2018-08-31T17:21:49.103Z,1.90
2018-08-31T17:24:17.513Z,1.43
2018-08-31T17:26:51.313Z,1.80
2018-08-31T17:29:25.114Z,1.97
2018-08-31T17:31:58.860Z,2.13
2018-08-31T17:34:32.503Z,1.60
2018-08-31T17:37:06.185Z,1.43
2018-08-31T17:39:34.733Z,2.03
2018-08-31T17:42:03.301Z,1.50
2018-08-31T17:44:31.820Z,1.70
2018-08-31T17:47:00.499Z,1.70
2018-08-31T17:49:28.990Z,1.80
2018-08-31T17:51:57.518Z,1.33
2018-08-31T17:54:25.967Z,1.53
2018-08-31T17:56:54.417Z,1.80
2018-08-31T17:59:22.889Z,1.60
2018-08-31T18:01:51.290Z,1.90
2018-08-31T18:04:19.769Z,1.53
2018-08-31T18:06:48.170Z,1.67
2018-08-31T18:09:16.622Z,1.80
2018-08-31T18:11:45.005Z,1.70
2018-08-31T18:14:13.445Z,2.17
2018-08-31T18:16:42.042Z,1.30
2018-08-31T18:19:10.495Z,1.80
2018-08-31T18:21:38.884Z,1.53
2018-08-31T18:24:07.354Z,1.90
2018-08-31T18:26:35.767Z,1.77
2018-08-31T18:29:04.240Z,2.23
2018-08-31T18:31:32.926Z,1.50
2018-08-31T18:34:01.325Z,1.40
2018-08-31T18:36:29.825Z,1.63
2018-08-31T18:38:58.294Z,1.87
2018-08-31T18:41:26.696Z,2.03
2018-08-31T18:43:55.148Z,1.60
2018-08-31T18:46:23.748Z,2.10
2018-08-31T18:48:52.069Z,2.00
2018-08-31T18:51:20.593Z,1.67
2018-08-31T18:53:48.991Z,2.00
2018-08-31T18:56:17.517Z,1.63
2018-08-31T18:58:45.967Z,1.60
2018-08-31T19:01:14.379Z,1.90
2018-08-31T19:03:42.772Z,1.87
2018-08-31T19:06:11.595Z,2.27
2018-08-31T19:08:40.016Z,2.03
2018-08-31T19:11:08.446Z,2.10
2018-08-31T19:13:36.829Z,1.90
2018-08-31T19:16:05.312Z,2.00
2018-08-31T19:18:33.898Z,2.10
2018-08-31T19:21:02.304Z,1.80
2018-08-31T19:23:30.740Z,2.30
2018-08-31T19:25:59.281Z,1.90
2018-08-31T19:28:27.779Z,2.40
2018-08-31T19:30:56.252Z,2.00
2018-08-31T19:33:24.706Z,2.23
2018-08-31T19:35:53.171Z,2.30
2018-08-31T19:38:21.587Z,2.77
2018-08-31T19:40:50.235Z,2.50
2018-08-31T19:43:18.790Z,2.70
2018-08-31T19:45:47.338Z,2.23
2018-08-31T19:48:15.774Z,2.70
2018-08-31T19:50:44.237Z,3.07
2018-08-31T19:53:12.793Z,3.27
2018-08-31T19:55:41.296Z,2.40
2018-08-31T19:58:09.763Z,2.40
2018-08-31T20:00:38.405Z,2.60
2018-08-31T20:03:06.825Z,1.90
2018-08-31T20:05:35.368Z,1.70
2018-08-31T20:08:03.835Z,2.07
2018-08-31T20:10:32.310Z,2.97
2018-08-31T20:13:00.904Z,2.30
2018-08-31T20:15:29.310Z,2.10
2018-08-31T20:17:57.747Z,2.30
2018-08-31T20:20:26.298Z,2.30
2018-08-31T20:22:54.783Z,1.97
2018-08-31T20:25:23.344Z,2.00
2018-08-31T20:27:51.795Z,1.90
2018-08-31T20:30:20.290Z,2.00
2018-08-31T20:32:48.739Z,1.97
2018-08-31T20:35:17.112Z,1.90
2018-08-31T20:37:45.590Z,2.57
2018-08-31T20:40:14.090Z,2.10
2018-08-31T20:42:42.487Z,1.93
2018-08-31T20:45:10.901Z,2.30
2018-08-31T20:47:39.424Z,2.37
2018-08-31T20:50:07.889Z,2.20
2018-08-31T20:52:36.309Z,2.10
2018-08-31T20:55:04.951Z,2.20
2018-08-31T20:57:33.380Z,2.73
2018-08-31T21:00:01.801Z,2.30
2018-08-31T21:02:30.273Z,2.43
2018-08-31T21:04:58.737Z,2.70
2018-08-31T21:07:27.146Z,2.20
2018-08-31T21:09:55.516Z,2.10
2018-08-31T21:12:24.036Z,2.40
2018-08-31T21:14:52.496Z,2.70
2018-08-31T21:17:21.041Z,2.73
2018-08-31T21:19:49.465Z,2.80
2018-08-31T21:22:17.977Z,2.40
2018-08-31T21:24:46.449Z,2.83
2018-08-31T21:27:14.860Z,3.20
2018-08-31T21:29:43.260Z,2.40
2018-08-31T21:32:12.586Z,2.87
2018-08-31T21:34:40.977Z,3.17
2018-08-31T21:37:09.405Z,2.87
2018-08-31T21:39:37.796Z,2.53
2018-08-31T21:42:06.542Z,2.70
2018-08-31T21:44:35.268Z,2.40
2018-08-31T21:47:03.690Z,2.80
2018-08-31T21:49:32.197Z,2.40
2018-08-31T21:52:00.600Z,2.57
2018-08-31T21:54:29.238Z,2.60
2018-08-31T21:56:57.676Z,2.60
2018-08-31T21:59:26.141Z,2.60
2018-08-31T22:01:55.953Z,4.67
2018-08-31T22:04:25.006Z,3.83
2018-08-31T22:06:53.652Z,3.90
2018-08-31T22:09:22.059Z,2.73
2018-08-31T22:11:50.605Z,4.60
2018-08-31T22:14:19.028Z,2.67
2018-08-31T22:16:47.461Z,3.73
2018-08-31T22:19:15.961Z,3.17
2018-08-31T22:21:44.387Z,3.47
2018-08-31T22:24:12.924Z,4.00
2018-08-31T22:26:41.320Z,3.57
2018-08-31T22:29:09.753Z,3.10
2018-08-31T22:31:38.158Z,3.50
2018-08-31T22:34:06.585Z,3.83
2018-08-31T22:36:35.121Z,3.30
2018-08-31T22:39:03.621Z,3.70
2018-08-31T22:41:32.005Z,3.77
2018-08-31T22:44:00.446Z,4.40
2018-08-31T22:46:28.827Z,3.37
2018-08-31T22:48:57.248Z,3.40
2018-08-31T22:51:25.658Z,2.97
2018-08-31T22:53:54.142Z,2.90
2018-08-31T22:56:22.543Z,3.73
2018-08-31T22:58:51.072Z,3.20
2018-08-31T23:01:19.501Z,3.60
2018-08-31T23:03:47.922Z,4.20
2018-08-31T23:06:16.324Z,4.37
2018-08-31T23:08:44.761Z,3.40
2018-08-31T23:11:13.249Z,3.97
2018-08-31T23:13:43.306Z,3.47
2018-08-31T23:16:11.657Z,4.00
2018-08-31T23:18:40.517Z,4.23
2018-08-31T23:21:09.590Z,4.00
2018-08-31T23:23:43.485Z,4.77
2018-08-31T23:26:11.919Z,3.93
2018-08-31T23:28:40.271Z,4.17
2018-08-31T23:31:08.855Z,3.90
2018-08-31T23:33:37.326Z,3.57
2018-08-31T23:36:05.946Z,4.40
2018-08-31T23:38:34.348Z,4.40
2018-08-31T23:41:02.776Z,4.17
2018-08-31T23:43:31.174Z,4.03
2018-08-31T23:45:59.612Z,4.13
2018-08-31T23:48:27.999Z,4.47
2018-08-31T23:50:56.421Z,4.67
2018-08-31T23:53:24.841Z,4.60
2018-08-31T23:55:53.318Z,4.40
2018-08-31T23:58:21.748Z,4.30
